sensor_id;sensor_type;location;lat;lon;timestamp;P1;durP1;ratioP1;P2;durP2;ratioP2
25381;SDS011;16307;42.896;20.874;2022-12-13T00:00:26;45.45;;;22.92;;
25381;SDS011;16307;42.896;20.874;2022-12-13T00:03:12;48.60;;;24.85;;
25381;SDS011;16307;42.896;20.874;2022-12-13T00:05:58;44.50;;;22.23;;
25381;SDS011;16307;42.896;20.874;2022-12-13T00:08:44;46.95;;;23.55;;
25381;SDS011;16307;42.896;20.874;2022-12-13T00:11:30;47.65;;;23.92;;
25381;SDS011;16307;42.896;20.874;2022-12-13T00:14:17;49.35;;;23.95;;
25381;SDS011;16307;42.896;20.874;2022-12-13T00:17:03;49.63;;;23.08;;
25381;SDS011;16307;42.896;20.874;2022-12-13T00:19:49;45.42;;;23.75;;
25381;SDS011;16307;42.896;20.874;2022-12-13T00:22:36;53.78;;;26.65;;
25381;SDS011;16307;42.896;20.874;2022-12-13T00:25:22;53.33;;;23.88;;
25381;SDS011;16307;42.896;20.874;2022-12-13T00:28:08;51.60;;;24.17;;
25381;SDS011;16307;42.896;20.874;2022-12-13T00:30:58;50.10;;;25.00;;
25381;SDS011;16307;42.896;20.874;2022-12-13T00:34:04;47.38;;;23.40;;
25381;SDS011;16307;42.896;20.874;2022-12-13T00:36:52;54.40;;;26.55;;
25381;SDS011;16307;42.896;20.874;2022-12-13T00:39:39;50.10;;;24.95;;
25381;SDS011;16307;42.896;20.874;2022-12-13T00:42:26;51.28;;;23.67;;
25381;SDS011;16307;42.896;20.874;2022-12-13T00:45:12;47.67;;;24.13;;
25381;SDS011;16307;42.896;20.874;2022-12-13T00:47:58;51.33;;;24.92;;
25381;SDS011;16307;42.896;20.874;2022-12-13T00:50:45;46.63;;;23.67;;
25381;SDS011;16307;42.896;20.874;2022-12-13T00:53:31;48.80;;;23.35;;
25381;SDS011;16307;42.896;20.874;2022-12-13T00:56:19;47.17;;;24.17;;
25381;SDS011;16307;42.896;20.874;2022-12-13T00:59:08;50.33;;;23.95;;
25381;SDS011;16307;42.896;20.874;2022-12-13T01:01:58;45.65;;;23.40;;
25381;SDS011;16307;42.896;20.874;2022-12-13T01:04:44;47.53;;;24.35;;
25381;SDS011;16307;42.896;20.874;2022-12-13T01:07:30;47.92;;;24.02;;
25381;SDS011;16307;42.896;20.874;2022-12-13T01:10:16;42.13;;;21.52;;
25381;SDS011;16307;42.896;20.874;2022-12-13T01:13:02;49.47;;;24.60;;
25381;SDS011;16307;42.896;20.874;2022-12-13T01:15:48;48.15;;;23.50;;
25381;SDS011;16307;42.896;20.874;2022-12-13T01:18:34;43.03;;;21.83;;
25381;SDS011;16307;42.896;20.874;2022-12-13T01:21:20;41.97;;;21.38;;
25381;SDS011;16307;42.896;20.874;2022-12-13T01:24:06;41.97;;;20.77;;
25381;SDS011;16307;42.896;20.874;2022-12-13T01:26:55;30.45;;;16.92;;
25381;SDS011;16307;42.896;20.874;2022-12-13T01:29:42;35.10;;;17.77;;
25381;SDS011;16307;42.896;20.874;2022-12-13T01:32:28;34.85;;;17.45;;
25381;SDS011;16307;42.896;20.874;2022-12-13T01:35:14;45.50;;;20.75;;
25381;SDS011;16307;42.896;20.874;2022-12-13T01:38:01;43.42;;;20.75;;
25381;SDS011;16307;42.896;20.874;2022-12-13T01:41:00;42.30;;;20.40;;
25381;SDS011;16307;42.896;20.874;2022-12-13T01:44:02;38.55;;;19.60;;
25381;SDS011;16307;42.896;20.874;2022-12-13T01:46:50;39.33;;;19.33;;
25381;SDS011;16307;42.896;20.874;2022-12-13T01:49:36;43.42;;;21.00;;
25381;SDS011;16307;42.896;20.874;2022-12-13T01:52:23;44.33;;;19.92;;
25381;SDS011;16307;42.896;20.874;2022-12-13T01:55:10;39.63;;;20.05;;
25381;SDS011;16307;42.896;20.874;2022-12-13T01:57:58;42.75;;;19.17;;
25381;SDS011;16307;42.896;20.874;2022-12-13T02:00:46;38.38;;;19.80;;
25381;SDS011;16307;42.896;20.874;2022-12-13T02:03:33;37.83;;;18.88;;
25381;SDS011;16307;42.896;20.874;2022-12-13T02:06:27;37.30;;;18.95;;
25381;SDS011;16307;42.896;20.874;2022-12-13T02:09:18;43.30;;;20.45;;
25381;SDS011;16307;42.896;20.874;2022-12-13T02:12:05;41.78;;;19.83;;
25381;SDS011;16307;42.896;20.874;2022-12-13T02:14:52;45.63;;;21.48;;
25381;SDS011;16307;42.896;20.874;2022-12-13T02:27:12;41.60;;;19.08;;
25381;SDS011;16307;42.896;20.874;2022-12-13T02:39:09;38.20;;;18.13;;
25381;SDS011;16307;42.896;20.874;2022-12-13T02:42:04;37.30;;;18.27;;
25381;SDS011;16307;42.896;20.874;2022-12-13T02:45:07;35.10;;;17.90;;
25381;SDS011;16307;42.896;20.874;2022-12-13T02:48:05;33.58;;;17.42;;
25381;SDS011;16307;42.896;20.874;2022-12-13T02:50:53;34.83;;;17.80;;
25381;SDS011;16307;42.896;20.874;2022-12-13T02:53:40;36.47;;;17.85;;
25381;SDS011;16307;42.896;20.874;2022-12-13T02:56:27;37.63;;;17.80;;
25381;SDS011;16307;42.896;20.874;2022-12-13T02:59:16;34.05;;;16.65;;
25381;SDS011;16307;42.896;20.874;2022-12-13T03:05:19;33.92;;;18.17;;
25381;SDS011;16307;42.896;20.874;2022-12-13T03:18:26;38.92;;;17.90;;
25381;SDS011;16307;42.896;20.874;2022-12-13T03:21:13;36.15;;;18.17;;
25381;SDS011;16307;42.896;20.874;2022-12-13T03:23:59;37.83;;;18.98;;
25381;SDS011;16307;42.896;20.874;2022-12-13T03:26:46;34.20;;;17.45;;
25381;SDS011;16307;42.896;20.874;2022-12-13T03:29:33;37.03;;;18.77;;
25381;SDS011;16307;42.896;20.874;2022-12-13T03:32:19;36.72;;;18.95;;
25381;SDS011;16307;42.896;20.874;2022-12-13T03:35:05;35.55;;;17.20;;
25381;SDS011;16307;42.896;20.874;2022-12-13T03:38:07;35.72;;;17.52;;
25381;SDS011;16307;42.896;20.874;2022-12-13T03:40:55;36.80;;;19.08;;
25381;SDS011;16307;42.896;20.874;2022-12-13T03:43:42;34.20;;;17.48;;
25381;SDS011;16307;42.896;20.874;2022-12-13T03:46:29;36.67;;;17.92;;
25381;SDS011;16307;42.896;20.874;2022-12-13T03:49:15;36.83;;;18.63;;
25381;SDS011;16307;42.896;20.874;2022-12-13T03:52:02;35.58;;;17.73;;
25381;SDS011;16307;42.896;20.874;2022-12-13T03:54:48;34.00;;;17.13;;
25381;SDS011;16307;42.896;20.874;2022-12-13T03:57:34;38.08;;;18.92;;
25381;SDS011;16307;42.896;20.874;2022-12-13T04:00:20;36.00;;;17.10;;
25381;SDS011;16307;42.896;20.874;2022-12-13T04:03:06;35.20;;;17.65;;
25381;SDS011;16307;42.896;20.874;2022-12-13T04:05:52;36.60;;;18.70;;
25381;SDS011;16307;42.896;20.874;2022-12-13T04:08:38;39.17;;;19.77;;
25381;SDS011;16307;42.896;20.874;2022-12-13T04:11:25;39.35;;;18.25;;
25381;SDS011;16307;42.896;20.874;2022-12-13T04:14:29;43.65;;;20.25;;
25381;SDS011;16307;42.896;20.874;2022-12-13T04:17:15;37.95;;;19.15;;
25381;SDS011;16307;42.896;20.874;2022-12-13T04:20:01;36.90;;;17.38;;
25381;SDS011;16307;42.896;20.874;2022-12-13T04:22:47;35.08;;;18.27;;
25381;SDS011;16307;42.896;20.874;2022-12-13T04:25:33;37.20;;;18.02;;
25381;SDS011;16307;42.896;20.874;2022-12-13T04:28:19;34.53;;;17.38;;
25381;SDS011;16307;42.896;20.874;2022-12-13T04:31:07;36.42;;;18.35;;
25381;SDS011;16307;42.896;20.874;2022-12-13T04:33:53;35.85;;;18.85;;
25381;SDS011;16307;42.896;20.874;2022-12-13T04:36:39;33.58;;;17.17;;
25381;SDS011;16307;42.896;20.874;2022-12-13T04:39:26;38.20;;;17.40;;
25381;SDS011;16307;42.896;20.874;2022-12-13T04:42:19;34.90;;;18.33;;
25381;SDS011;16307;42.896;20.874;2022-12-13T04:45:05;38.80;;;18.27;;
25381;SDS011;16307;42.896;20.874;2022-12-13T04:47:51;37.72;;;19.55;;
25381;SDS011;16307;42.896;20.874;2022-12-13T04:50:37;37.75;;;19.10;;
25381;SDS011;16307;42.896;20.874;2022-12-13T04:53:23;35.45;;;17.95;;
25381;SDS011;16307;42.896;20.874;2022-12-13T04:56:09;38.10;;;18.20;;
25381;SDS011;16307;42.896;20.874;2022-12-13T04:58:55;33.97;;;16.58;;
25381;SDS011;16307;42.896;20.874;2022-12-13T05:01:40;38.50;;;19.25;;
25381;SDS011;16307;42.896;20.874;2022-12-13T05:04:26;37.55;;;18.38;;
25381;SDS011;16307;42.896;20.874;2022-12-13T05:07:17;36.88;;;18.45;;
25381;SDS011;16307;42.896;20.874;2022-12-13T05:10:04;42.05;;;19.52;;
25381;SDS011;16307;42.896;20.874;2022-12-13T05:12:50;33.90;;;17.73;;
25381;SDS011;16307;42.896;20.874;2022-12-13T05:15:36;35.13;;;17.38;;
25381;SDS011;16307;42.896;20.874;2022-12-13T05:18:22;37.95;;;18.23;;
25381;SDS011;16307;42.896;20.874;2022-12-13T05:21:09;37.25;;;17.35;;
25381;SDS011;16307;42.896;20.874;2022-12-13T05:23:56;35.70;;;17.00;;
25381;SDS011;16307;42.896;20.874;2022-12-13T05:26:42;35.17;;;17.98;;
25381;SDS011;16307;42.896;20.874;2022-12-13T05:29:27;41.72;;;20.33;;
25381;SDS011;16307;42.896;20.874;2022-12-13T05:32:14;37.13;;;19.80;;
25381;SDS011;16307;42.896;20.874;2022-12-13T05:35:00;40.30;;;18.88;;
25381;SDS011;16307;42.896;20.874;2022-12-13T05:37:46;40.42;;;18.58;;
25381;SDS011;16307;42.896;20.874;2022-12-13T05:40:39;38.20;;;20.10;;
25381;SDS011;16307;42.896;20.874;2022-12-13T05:43:25;40.53;;;20.23;;
25381;SDS011;16307;42.896;20.874;2022-12-13T05:46:28;40.67;;;18.08;;
25381;SDS011;16307;42.896;20.874;2022-12-13T05:49:14;35.40;;;18.15;;
25381;SDS011;16307;42.896;20.874;2022-12-13T05:51:59;35.58;;;18.42;;
25381;SDS011;16307;42.896;20.874;2022-12-13T05:54:45;37.42;;;18.90;;
25381;SDS011;16307;42.896;20.874;2022-12-13T05:57:32;39.60;;;19.02;;
25381;SDS011;16307;42.896;20.874;2022-12-13T06:00:18;40.90;;;19.48;;
25381;SDS011;16307;42.896;20.874;2022-12-13T06:03:15;44.80;;;19.08;;
25381;SDS011;16307;42.896;20.874;2022-12-13T06:06:02;35.72;;;17.48;;
25381;SDS011;16307;42.896;20.874;2022-12-13T06:08:48;35.97;;;18.77;;
25381;SDS011;16307;42.896;20.874;2022-12-13T06:11:35;40.05;;;17.77;;
25381;SDS011;16307;42.896;20.874;2022-12-13T06:14:28;36.88;;;18.55;;
25381;SDS011;16307;42.896;20.874;2022-12-13T06:17:14;37.67;;;18.92;;
25381;SDS011;16307;42.896;20.874;2022-12-13T06:20:06;38.05;;;17.88;;
25381;SDS011;16307;42.896;20.874;2022-12-13T06:23:09;36.50;;;17.67;;
25381;SDS011;16307;42.896;20.874;2022-12-13T06:25:55;35.60;;;18.27;;
25381;SDS011;16307;42.896;20.874;2022-12-13T06:28:42;39.65;;;18.00;;
25381;SDS011;16307;42.896;20.874;2022-12-13T06:31:31;36.33;;;17.45;;
25381;SDS011;16307;42.896;20.874;2022-12-13T06:34:17;40.90;;;17.73;;
25381;SDS011;16307;42.896;20.874;2022-12-13T06:37:04;33.80;;;17.20;;
25381;SDS011;16307;42.896;20.874;2022-12-13T06:39:51;31.15;;;16.33;;
25381;SDS011;16307;42.896;20.874;2022-12-13T06:42:37;33.65;;;16.42;;
25381;SDS011;16307;42.896;20.874;2022-12-13T06:45:24;35.53;;;17.17;;
25381;SDS011;16307;42.896;20.874;2022-12-13T06:48:10;34.33;;;16.98;;
25381;SDS011;16307;42.896;20.874;2022-12-13T06:51:03;28.02;;;14.45;;
25381;SDS011;16307;42.896;20.874;2022-12-13T06:53:50;29.75;;;14.65;;
25381;SDS011;16307;42.896;20.874;2022-12-13T06:56:36;27.35;;;14.30;;
25381;SDS011;16307;42.896;20.874;2022-12-13T06:59:22;29.13;;;14.55;;
25381;SDS011;16307;42.896;20.874;2022-12-13T07:02:08;29.70;;;14.75;;
25381;SDS011;16307;42.896;20.874;2022-12-13T07:05:10;25.80;;;14.10;;
25381;SDS011;16307;42.896;20.874;2022-12-13T07:07:56;26.90;;;13.70;;
25381;SDS011;16307;42.896;20.874;2022-12-13T07:10:42;29.67;;;15.25;;
25381;SDS011;16307;42.896;20.874;2022-12-13T07:13:29;30.05;;;14.50;;
25381;SDS011;16307;42.896;20.874;2022-12-13T07:16:15;30.98;;;15.73;;
25381;SDS011;16307;42.896;20.874;2022-12-13T07:19:01;32.72;;;16.15;;
25381;SDS011;16307;42.896;20.874;2022-12-13T07:22:07;30.08;;;15.35;;
25381;SDS011;16307;42.896;20.874;2022-12-13T07:24:53;27.55;;;14.43;;
25381;SDS011;16307;42.896;20.874;2022-12-13T07:27:39;28.13;;;14.90;;
25381;SDS011;16307;42.896;20.874;2022-12-13T07:30:25;28.08;;;14.85;;
25381;SDS011;16307;42.896;20.874;2022-12-13T07:33:12;33.53;;;17.15;;
25381;SDS011;16307;42.896;20.874;2022-12-13T07:36:07;33.85;;;16.63;;
25381;SDS011;16307;42.896;20.874;2022-12-13T07:38:57;36.38;;;16.50;;
25381;SDS011;16307;42.896;20.874;2022-12-13T07:41:43;30.90;;;16.42;;
25381;SDS011;16307;42.896;20.874;2022-12-13T07:44:29;33.30;;;15.82;;
25381;SDS011;16307;42.896;20.874;2022-12-13T07:47:15;33.75;;;15.90;;
25381;SDS011;16307;42.896;20.874;2022-12-13T07:50:00;32.63;;;16.90;;
25381;SDS011;16307;42.896;20.874;2022-12-13T07:52:47;34.35;;;17.10;;
25381;SDS011;16307;42.896;20.874;2022-12-13T07:55:34;35.60;;;17.10;;
25381;SDS011;16307;42.896;20.874;2022-12-13T07:58:21;43.55;;;21.58;;
25381;SDS011;16307;42.896;20.874;2022-12-13T08:01:08;44.88;;;22.15;;
25381;SDS011;16307;42.896;20.874;2022-12-13T08:03:54;42.72;;;19.77;;
25381;SDS011;16307;42.896;20.874;2022-12-13T08:06:40;36.42;;;18.30;;
25381;SDS011;16307;42.896;20.874;2022-12-13T08:09:27;34.92;;;17.27;;
25381;SDS011;16307;42.896;20.874;2022-12-13T08:12:13;35.80;;;16.90;;
25381;SDS011;16307;42.896;20.874;2022-12-13T08:15:07;31.20;;;15.93;;
25381;SDS011;16307;42.896;20.874;2022-12-13T08:17:58;29.65;;;14.85;;
25381;SDS011;16307;42.896;20.874;2022-12-13T08:20:45;31.38;;;15.80;;
25381;SDS011;16307;42.896;20.874;2022-12-13T08:23:32;35.83;;;16.90;;
25381;SDS011;16307;42.896;20.874;2022-12-13T08:26:19;36.53;;;16.73;;
25381;SDS011;16307;42.896;20.874;2022-12-13T08:29:05;37.05;;;16.45;;
25381;SDS011;16307;42.896;20.874;2022-12-13T08:31:50;35.25;;;17.35;;
25381;SDS011;16307;42.896;20.874;2022-12-13T08:34:37;31.17;;;16.10;;
25381;SDS011;16307;42.896;20.874;2022-12-13T08:37:23;35.80;;;16.00;;
25381;SDS011;16307;42.896;20.874;2022-12-13T08:40:10;37.38;;;16.83;;
25381;SDS011;16307;42.896;20.874;2022-12-13T08:42:56;31.30;;;15.63;;
25381;SDS011;16307;42.896;20.874;2022-12-13T08:45:43;26.90;;;14.23;;
25381;SDS011;16307;42.896;20.874;2022-12-13T08:48:30;30.10;;;14.73;;
25381;SDS011;16307;42.896;20.874;2022-12-13T08:51:16;30.80;;;14.55;;
25381;SDS011;16307;42.896;20.874;2022-12-13T08:54:11;36.15;;;17.17;;
25381;SDS011;16307;42.896;20.874;2022-12-13T08:56:57;28.52;;;14.00;;
25381;SDS011;16307;42.896;20.874;2022-12-13T08:59:43;32.17;;;15.15;;
25381;SDS011;16307;42.896;20.874;2022-12-13T09:02:28;28.65;;;15.18;;
25381;SDS011;16307;42.896;20.874;2022-12-13T09:05:22;40.67;;;17.98;;
25381;SDS011;16307;42.896;20.874;2022-12-13T09:08:19;30.60;;;16.15;;
25381;SDS011;16307;42.896;20.874;2022-12-13T09:11:10;34.20;;;16.73;;
25381;SDS011;16307;42.896;20.874;2022-12-13T09:14:09;37.03;;;19.15;;
25381;SDS011;16307;42.896;20.874;2022-12-13T09:16:58;34.67;;;17.23;;
25381;SDS011;16307;42.896;20.874;2022-12-13T09:19:47;35.55;;;16.83;;
25381;SDS011;16307;42.896;20.874;2022-12-13T09:22:34;29.83;;;15.15;;
25381;SDS011;16307;42.896;20.874;2022-12-13T09:25:20;29.25;;;14.45;;
25381;SDS011;16307;42.896;20.874;2022-12-13T09:28:08;36.25;;;16.00;;
25381;SDS011;16307;42.896;20.874;2022-12-13T09:30:55;35.00;;;15.90;;
25381;SDS011;16307;42.896;20.874;2022-12-13T09:33:42;36.80;;;17.70;;
25381;SDS011;16307;42.896;20.874;2022-12-13T09:36:28;37.78;;;19.63;;
25381;SDS011;16307;42.896;20.874;2022-12-13T09:39:14;40.28;;;19.42;;
25381;SDS011;16307;42.896;20.874;2022-12-13T09:42:01;27.58;;;15.07;;
25381;SDS011;16307;42.896;20.874;2022-12-13T09:45:02;27.25;;;14.15;;
25381;SDS011;16307;42.896;20.874;2022-12-13T09:47:50;36.40;;;16.48;;
25381;SDS011;16307;42.896;20.874;2022-12-13T09:50:45;33.88;;;14.60;;
25381;SDS011;16307;42.896;20.874;2022-12-13T09:53:43;36.47;;;17.40;;
25381;SDS011;16307;42.896;20.874;2022-12-13T09:56:31;33.58;;;16.38;;
25381;SDS011;16307;42.896;20.874;2022-12-13T09:59:27;37.13;;;15.88;;
25381;SDS011;16307;42.896;20.874;2022-12-13T10:02:50;32.08;;;15.43;;
25381;SDS011;16307;42.896;20.874;2022-12-13T10:05:37;34.90;;;16.35;;
25381;SDS011;16307;42.896;20.874;2022-12-13T10:08:31;33.28;;;16.00;;
25381;SDS011;16307;42.896;20.874;2022-12-13T10:11:21;31.13;;;15.95;;
25381;SDS011;16307;42.896;20.874;2022-12-13T10:14:19;22.90;;;12.07;;
25381;SDS011;16307;42.896;20.874;2022-12-13T10:17:10;24.13;;;12.00;;
25381;SDS011;16307;42.896;20.874;2022-12-13T10:20:01;23.10;;;11.25;;
25381;SDS011;16307;42.896;20.874;2022-12-13T10:22:48;25.15;;;12.60;;
25381;SDS011;16307;42.896;20.874;2022-12-13T10:25:54;27.13;;;12.80;;
25381;SDS011;16307;42.896;20.874;2022-12-13T10:28:48;28.63;;;12.63;;
25381;SDS011;16307;42.896;20.874;2022-12-13T10:31:43;27.70;;;13.00;;
25381;SDS011;16307;42.896;20.874;2022-12-13T10:34:33;31.80;;;14.52;;
25381;SDS011;16307;42.896;20.874;2022-12-13T10:40:37;27.02;;;13.60;;
25381;SDS011;16307;42.896;20.874;2022-12-13T10:43:33;25.73;;;13.02;;
25381;SDS011;16307;42.896;20.874;2022-12-13T10:46:23;22.48;;;11.60;;
25381;SDS011;16307;42.896;20.874;2022-12-13T10:49:32;23.70;;;11.90;;
25381;SDS011;16307;42.896;20.874;2022-12-13T10:55:32;25.90;;;12.20;;
25381;SDS011;16307;42.896;20.874;2022-12-13T10:58:18;23.58;;;11.68;;
25381;SDS011;16307;42.896;20.874;2022-12-13T11:04:01;17.73;;;9.90;;
25381;SDS011;16307;42.896;20.874;2022-12-13T11:07:22;18.48;;;10.35;;
25381;SDS011;16307;42.896;20.874;2022-12-13T11:13:21;17.85;;;9.52;;
25381;SDS011;16307;42.896;20.874;2022-12-13T11:19:03;20.33;;;10.43;;
25381;SDS011;16307;42.896;20.874;2022-12-13T11:21:50;23.77;;;11.73;;
25381;SDS011;16307;42.896;20.874;2022-12-13T11:24:37;26.33;;;13.10;;
25381;SDS011;16307;42.896;20.874;2022-12-13T11:40:01;26.60;;;13.98;;
25381;SDS011;16307;42.896;20.874;2022-12-13T11:46:16;24.00;;;12.20;;
25381;SDS011;16307;42.896;20.874;2022-12-13T11:49:14;18.58;;;9.73;;
25381;SDS011;16307;42.896;20.874;2022-12-13T11:52:04;17.17;;;9.60;;
25381;SDS011;16307;42.896;20.874;2022-12-13T11:55:14;24.80;;;12.23;;
25381;SDS011;16307;42.896;20.874;2022-12-13T12:00:55;24.80;;;12.73;;
25381;SDS011;16307;42.896;20.874;2022-12-13T12:06:51;39.08;;;18.65;;
25381;SDS011;16307;42.896;20.874;2022-12-13T12:09:40;34.65;;;16.63;;
25381;SDS011;16307;42.896;20.874;2022-12-13T12:12:31;29.08;;;16.30;;
25381;SDS011;16307;42.896;20.874;2022-12-13T12:15:20;46.50;;;20.35;;
25381;SDS011;16307;42.896;20.874;2022-12-13T12:18:14;30.00;;;15.60;;
25381;SDS011;16307;42.896;20.874;2022-12-13T12:21:07;38.53;;;18.75;;
25381;SDS011;16307;42.896;20.874;2022-12-13T12:45:19;32.70;;;17.52;;
25381;SDS011;16307;42.896;20.874;2022-12-13T12:51:58;38.90;;;18.58;;
25381;SDS011;16307;42.896;20.874;2022-12-13T13:04:32;36.33;;;19.15;;
25381;SDS011;16307;42.896;20.874;2022-12-13T13:07:22;35.40;;;19.15;;
25381;SDS011;16307;42.896;20.874;2022-12-13T13:10:24;33.42;;;18.35;;
25381;SDS011;16307;42.896;20.874;2022-12-13T13:25:31;29.90;;;15.70;;
25381;SDS011;16307;42.896;20.874;2022-12-13T13:28:38;32.10;;;15.63;;
25381;SDS011;16307;42.896;20.874;2022-12-13T13:31:24;33.90;;;16.42;;
25381;SDS011;16307;42.896;20.874;2022-12-13T13:34:23;29.85;;;14.60;;
25381;SDS011;16307;42.896;20.874;2022-12-13T13:43:15;34.33;;;15.80;;
25381;SDS011;16307;42.896;20.874;2022-12-13T13:49:02;35.45;;;17.95;;
25381;SDS011;16307;42.896;20.874;2022-12-13T14:01:19;50.80;;;24.58;;
25381;SDS011;16307;42.896;20.874;2022-12-13T14:20:08;49.45;;;21.23;;
25381;SDS011;16307;42.896;20.874;2022-12-13T14:26:13;46.40;;;21.77;;
25381;SDS011;16307;42.896;20.874;2022-12-13T14:32:00;50.00;;;22.00;;
25381;SDS011;16307;42.896;20.874;2022-12-13T14:34:48;49.50;;;22.65;;
25381;SDS011;16307;42.896;20.874;2022-12-13T14:37:34;39.53;;;20.05;;
25381;SDS011;16307;42.896;20.874;2022-12-13T14:40:27;42.72;;;18.70;;
25381;SDS011;16307;42.896;20.874;2022-12-13T14:43:21;43.85;;;20.95;;
25381;SDS011;16307;42.896;20.874;2022-12-13T14:46:10;40.13;;;20.40;;
25381;SDS011;16307;42.896;20.874;2022-12-13T14:48:59;47.50;;;22.67;;
25381;SDS011;16307;42.896;20.874;2022-12-13T14:51:48;44.22;;;21.08;;
25381;SDS011;16307;42.896;20.874;2022-12-13T14:54:49;35.58;;;18.10;;
25381;SDS011;16307;42.896;20.874;2022-12-13T14:57:49;40.72;;;19.10;;
25381;SDS011;16307;42.896;20.874;2022-12-13T15:00:38;45.95;;;18.70;;
25381;SDS011;16307;42.896;20.874;2022-12-13T15:03:26;35.05;;;18.33;;
25381;SDS011;16307;42.896;20.874;2022-12-13T15:06:12;37.60;;;17.95;;
25381;SDS011;16307;42.896;20.874;2022-12-13T15:08:59;61.42;;;22.33;;
25381;SDS011;16307;42.896;20.874;2022-12-13T15:11:46;52.50;;;25.50;;
25381;SDS011;16307;42.896;20.874;2022-12-13T15:14:32;43.33;;;21.90;;
25381;SDS011;16307;42.896;20.874;2022-12-13T15:20:33;63.45;;;26.75;;
25381;SDS011;16307;42.896;20.874;2022-12-13T15:26:22;66.05;;;28.35;;
25381;SDS011;16307;42.896;20.874;2022-12-13T15:29:14;72.82;;;30.67;;
25381;SDS011;16307;42.896;20.874;2022-12-13T15:32:03;69.35;;;28.80;;
25381;SDS011;16307;42.896;20.874;2022-12-13T15:34:50;78.47;;;36.05;;
25381;SDS011;16307;42.896;20.874;2022-12-13T15:37:36;72.50;;;31.13;;
25381;SDS011;16307;42.896;20.874;2022-12-13T15:40:22;78.00;;;32.80;;
25381;SDS011;16307;42.896;20.874;2022-12-13T15:43:12;71.45;;;31.33;;
25381;SDS011;16307;42.896;20.874;2022-12-13T15:46:02;70.18;;;30.02;;
25381;SDS011;16307;42.896;20.874;2022-12-13T15:48:49;76.80;;;33.30;;
25381;SDS011;16307;42.896;20.874;2022-12-13T15:51:42;77.55;;;32.90;;
25381;SDS011;16307;42.896;20.874;2022-12-13T15:54:38;71.30;;;33.20;;
25381;SDS011;16307;42.896;20.874;2022-12-13T15:57:25;69.20;;;29.98;;
25381;SDS011;16307;42.896;20.874;2022-12-13T16:08:41;81.75;;;34.63;;
25381;SDS011;16307;42.896;20.874;2022-12-13T16:14:49;75.35;;;32.47;;
25381;SDS011;16307;42.896;20.874;2022-12-13T16:17:36;81.13;;;35.72;;
25381;SDS011;16307;42.896;20.874;2022-12-13T16:20:27;78.45;;;32.53;;
25381;SDS011;16307;42.896;20.874;2022-12-13T16:23:15;83.47;;;37.80;;
25381;SDS011;16307;42.896;20.874;2022-12-13T16:26:12;79.38;;;33.08;;
25381;SDS011;16307;42.896;20.874;2022-12-13T16:28:58;76.28;;;32.88;;
25381;SDS011;16307;42.896;20.874;2022-12-13T16:31:44;77.18;;;35.75;;
25381;SDS011;16307;42.896;20.874;2022-12-13T16:34:31;82.95;;;35.38;;
25381;SDS011;16307;42.896;20.874;2022-12-13T16:37:17;82.10;;;37.55;;
25381;SDS011;16307;42.896;20.874;2022-12-13T16:43:03;93.47;;;39.13;;
25381;SDS011;16307;42.896;20.874;2022-12-13T16:45:51;80.85;;;36.22;;
25381;SDS011;16307;42.896;20.874;2022-12-13T16:48:37;80.72;;;35.53;;
25381;SDS011;16307;42.896;20.874;2022-12-13T16:51:23;84.13;;;36.33;;
25381;SDS011;16307;42.896;20.874;2022-12-13T16:54:09;84.57;;;39.08;;
25381;SDS011;16307;42.896;20.874;2022-12-13T16:56:56;100.85;;;39.85;;
25381;SDS011;16307;42.896;20.874;2022-12-13T16:59:41;92.35;;;40.95;;
25381;SDS011;16307;42.896;20.874;2022-12-13T17:02:27;99.32;;;43.33;;
25381;SDS011;16307;42.896;20.874;2022-12-13T17:05:14;92.30;;;41.22;;
25381;SDS011;16307;42.896;20.874;2022-12-13T17:08:00;98.00;;;45.47;;
25381;SDS011;16307;42.896;20.874;2022-12-13T17:10:46;93.45;;;42.75;;
25381;SDS011;16307;42.896;20.874;2022-12-13T17:13:42;92.45;;;41.00;;
25381;SDS011;16307;42.896;20.874;2022-12-13T17:16:29;90.68;;;38.42;;
25381;SDS011;16307;42.896;20.874;2022-12-13T17:19:16;77.68;;;35.50;;
25381;SDS011;16307;42.896;20.874;2022-12-13T17:22:02;87.57;;;38.25;;
25381;SDS011;16307;42.896;20.874;2022-12-13T17:24:48;83.35;;;38.72;;
25381;SDS011;16307;42.896;20.874;2022-12-13T17:27:34;83.50;;;36.88;;
25381;SDS011;16307;42.896;20.874;2022-12-13T17:30:22;95.95;;;39.17;;
25381;SDS011;16307;42.896;20.874;2022-12-13T17:33:08;77.82;;;36.22;;
25381;SDS011;16307;42.896;20.874;2022-12-13T17:35:56;81.38;;;36.33;;
25381;SDS011;16307;42.896;20.874;2022-12-13T17:38:46;80.55;;;34.55;;
25381;SDS011;16307;42.896;20.874;2022-12-13T17:41:32;75.68;;;33.78;;
25381;SDS011;16307;42.896;20.874;2022-12-13T17:44:19;78.80;;;35.03;;
25381;SDS011;16307;42.896;20.874;2022-12-13T17:47:05;75.97;;;35.05;;
25381;SDS011;16307;42.896;20.874;2022-12-13T17:49:51;78.55;;;33.05;;
25381;SDS011;16307;42.896;20.874;2022-12-13T17:52:38;72.82;;;32.65;;
25381;SDS011;16307;42.896;20.874;2022-12-13T17:55:24;69.88;;;31.73;;
25381;SDS011;16307;42.896;20.874;2022-12-13T17:58:11;70.72;;;31.35;;
25381;SDS011;16307;42.896;20.874;2022-12-13T18:00:58;72.43;;;30.10;;
25381;SDS011;16307;42.896;20.874;2022-12-13T18:03:58;73.07;;;31.25;;
25381;SDS011;16307;42.896;20.874;2022-12-13T18:06:44;78.03;;;32.53;;
25381;SDS011;16307;42.896;20.874;2022-12-13T18:09:30;74.63;;;32.88;;
25381;SDS011;16307;42.896;20.874;2022-12-13T18:12:17;76.53;;;32.03;;
25381;SDS011;16307;42.896;20.874;2022-12-13T18:15:04;83.35;;;33.80;;
25381;SDS011;16307;42.896;20.874;2022-12-13T18:17:50;73.95;;;32.55;;
25381;SDS011;16307;42.896;20.874;2022-12-13T18:21:01;73.45;;;32.75;;
25381;SDS011;16307;42.896;20.874;2022-12-13T18:23:51;81.03;;;36.55;;
25381;SDS011;16307;42.896;20.874;2022-12-13T18:26:40;75.78;;;31.60;;
25381;SDS011;16307;42.896;20.874;2022-12-13T18:29:26;78.65;;;31.60;;
25381;SDS011;16307;42.896;20.874;2022-12-13T18:32:12;75.95;;;32.50;;
25381;SDS011;16307;42.896;20.874;2022-12-13T18:34:58;64.15;;;31.20;;
25381;SDS011;16307;42.896;20.874;2022-12-13T18:37:44;70.72;;;30.73;;
25381;SDS011;16307;42.896;20.874;2022-12-13T18:40:30;59.13;;;28.85;;
25381;SDS011;16307;42.896;20.874;2022-12-13T18:43:16;61.55;;;28.13;;
25381;SDS011;16307;42.896;20.874;2022-12-13T18:46:03;66.97;;;29.98;;
25381;SDS011;16307;42.896;20.874;2022-12-13T18:48:50;67.38;;;28.80;;
25381;SDS011;16307;42.896;20.874;2022-12-13T18:51:36;68.53;;;29.00;;
25381;SDS011;16307;42.896;20.874;2022-12-13T18:54:22;72.05;;;28.85;;
25381;SDS011;16307;42.896;20.874;2022-12-13T18:57:08;56.50;;;26.58;;
25381;SDS011;16307;42.896;20.874;2022-12-13T18:59:54;67.75;;;30.67;;
25381;SDS011;16307;42.896;20.874;2022-12-13T19:02:40;73.90;;;31.27;;
25381;SDS011;16307;42.896;20.874;2022-12-13T19:05:26;68.22;;;30.45;;
25381;SDS011;16307;42.896;20.874;2022-12-13T19:08:12;70.60;;;31.85;;
25381;SDS011;16307;42.896;20.874;2022-12-13T19:10:59;82.20;;;30.70;;